createdAt,value
2019-03-03T00:01:19.435Z,91.20
2019-03-03T00:03:59.351Z,91.10
2019-03-03T00:06:39.564Z,91.20
2019-03-03T00:09:19.870Z,91.10
2019-03-03T00:12:00.045Z,90.90
2019-03-03T00:14:40.007Z,90.60
2019-03-03T00:17:20.263Z,90.50
2019-03-03T00:20:00.466Z,90.50
2019-03-03T00:22:40.416Z,90.40
2019-03-03T00:25:20.417Z,90.70
2019-03-03T00:28:00.412Z,90.70
2019-03-03T00:30:40.658Z,90.40
2019-03-03T00:33:20.883Z,90.50
2019-03-03T00:36:00.990Z,90.60
2019-03-03T00:38:49.216Z,90.70
2019-03-03T00:41:48.505Z,90.70
2019-03-03T00:44:40.860Z,90.70
2019-03-03T00:47:42.627Z,90.90
2019-03-03T00:50:33.405Z,91.00
2019-03-03T00:53:22.181Z,91.10
2019-03-03T00:56:08.549Z,91.00
2019-03-03T00:58:59.373Z,91.00
2019-03-03T01:01:49.934Z,90.80
2019-03-03T01:04:52.016Z,90.70
2019-03-03T01:07:51.448Z,90.60
2019-03-03T01:10:37.163Z,90.50
2019-03-03T01:13:28.311Z,90.40
2019-03-03T01:16:09.897Z,90.50
2019-03-03T01:18:57.292Z,90.60
2019-03-03T01:21:30.353Z,90.80
2019-03-03T01:24:23.676Z,90.80
2019-03-03T01:26:51.304Z,90.90
2019-03-03T01:29:18.879Z,91.00
2019-03-03T01:31:46.615Z,90.90
2019-03-03T01:34:14.307Z,90.80
2019-03-03T01:36:42.233Z,90.70
2019-03-03T01:39:10.192Z,90.70
2019-03-03T01:41:38.140Z,90.70
2019-03-03T01:44:05.746Z,90.80
2019-03-03T01:46:33.340Z,90.70
2019-03-03T01:49:01.033Z,90.70
2019-03-03T01:51:28.599Z,90.70
2019-03-03T01:53:56.192Z,90.70
2019-03-03T01:56:23.784Z,90.60
2019-03-03T01:58:51.383Z,90.50
2019-03-03T02:01:19.083Z,90.50
2019-03-03T02:03:46.841Z,90.30
2019-03-03T02:06:14.772Z,90.00
2019-03-03T02:08:42.543Z,90.00
2019-03-03T02:11:10.509Z,89.40
2019-03-03T02:13:38.122Z,89.10
2019-03-03T02:16:07.253Z,88.70
2019-03-03T02:18:34.809Z,88.60
2019-03-03T02:21:02.400Z,88.40
2019-03-03T02:23:30.091Z,88.30
2019-03-03T02:25:57.690Z,87.90
2019-03-03T02:28:25.260Z,88.10
2019-03-03T02:30:52.829Z,87.60
2019-03-03T02:33:20.456Z,87.20
2019-03-03T02:35:48.093Z,87.00
2019-03-03T02:38:15.720Z,87.20
2019-03-03T02:40:43.387Z,87.60
2019-03-03T02:46:40.794Z,88.20
2019-03-03T02:49:20.721Z,88.00
2019-03-03T02:52:01.205Z,88.00
2019-03-03T02:54:41.507Z,88.00
2019-03-03T02:57:21.663Z,87.30
2019-03-03T03:00:01.665Z,86.90
2019-03-03T03:02:44.776Z,87.50
2019-03-03T03:08:57.955Z,88.10
2019-03-03T03:11:57.363Z,88.40
2019-03-03T03:14:59.593Z,88.60
2019-03-03T03:17:59.940Z,88.90
2019-03-03T03:20:46.075Z,88.90
2019-03-03T03:23:40.569Z,88.90
2019-03-03T03:26:40.222Z,89.10
2019-03-03T03:29:35.610Z,88.90
2019-03-03T03:32:20.833Z,89.00
2019-03-03T03:35:22.998Z,89.10
2019-03-03T03:38:22.222Z,89.20
2019-03-03T03:41:21.476Z,89.40
2019-03-03T03:44:15.382Z,88.90
2019-03-03T03:47:14.837Z,88.70
2019-03-03T03:50:13.959Z,88.80
2019-03-03T03:53:13.886Z,88.80
2019-03-03T03:56:14.333Z,88.40
2019-03-03T03:59:13.663Z,88.10
2019-03-03T04:02:12.654Z,88.10
2019-03-03T04:05:12.000Z,87.90
2019-03-03T04:10:44.970Z,87.70
2019-03-03T04:13:52.176Z,88.10
2019-03-03T04:16:37.965Z,88.00
2019-03-03T04:19:25.145Z,88.20
2019-03-03T04:22:31.636Z,87.80
2019-03-03T04:25:26.664Z,87.40
2019-03-03T04:28:28.908Z,87.30
2019-03-03T04:31:15.924Z,87.20
2019-03-03T04:34:10.339Z,87.20
2019-03-03T04:37:09.745Z,86.60
2019-03-03T04:40:11.811Z,87.00
2019-03-03T04:43:10.923Z,87.10
2019-03-03T04:46:01.013Z,86.90
2019-03-03T04:49:07.460Z,87.80
2019-03-03T04:51:59.278Z,88.10
2019-03-03T04:54:58.647Z,88.60
2019-03-03T04:57:48.951Z,88.80
2019-03-03T05:00:48.237Z,89.30
2019-03-03T05:03:47.488Z,90.00
2019-03-03T05:06:46.810Z,90.20
2019-03-03T05:09:46.280Z,90.00
2019-03-03T05:12:51.508Z,89.90
2019-03-03T05:15:50.712Z,89.40
2019-03-03T05:18:31.207Z,90.00
2019-03-03T05:21:11.472Z,90.20
2019-03-03T05:23:51.553Z,90.00
2019-03-03T05:26:31.656Z,90.20
2019-03-03T05:29:11.760Z,90.10
2019-03-03T05:31:52.028Z,90.20
2019-03-03T05:37:31.615Z,89.50
2019-03-03T05:40:11.486Z,89.50
2019-03-03T05:42:39.088Z,88.60
2019-03-03T05:45:06.807Z,88.70
2019-03-03T05:47:34.407Z,89.10
2019-03-03T05:50:02.008Z,88.60
2019-03-03T05:52:29.607Z,87.70
2019-03-03T05:54:57.256Z,85.50
2019-03-03T05:57:24.828Z,84.90
2019-03-03T05:59:52.420Z,85.20
2019-03-03T06:02:19.995Z,85.70
2019-03-03T06:04:47.636Z,85.40
2019-03-03T06:07:15.277Z,84.50
2019-03-03T06:09:43.296Z,83.90
2019-03-03T06:12:11.003Z,82.60
2019-03-03T06:14:58.008Z,82.40
2019-03-03T06:17:45.048Z,82.50
2019-03-03T06:20:25.445Z,82.40
2019-03-03T06:23:05.897Z,82.80
2019-03-03T06:25:46.125Z,82.30
2019-03-03T06:28:26.144Z,82.40
2019-03-03T06:31:06.210Z,82.00
2019-03-03T06:33:46.620Z,81.60
2019-03-03T06:36:26.725Z,80.90
2019-03-03T06:39:07.169Z,80.60
2019-03-03T06:41:46.985Z,80.90
2019-03-03T06:44:27.185Z,82.10
2019-03-03T06:47:07.455Z,82.80
2019-03-03T06:49:47.636Z,83.50
2019-03-03T06:52:27.724Z,83.80
2019-03-03T06:55:08.016Z,83.70
2019-03-03T06:57:48.284Z,83.20
2019-03-03T07:00:28.103Z,82.60
2019-03-03T07:03:08.266Z,83.10
2019-03-03T07:05:48.489Z,82.70
2019-03-03T07:08:28.881Z,82.70
2019-03-03T07:10:56.492Z,83.10
2019-03-03T07:13:24.067Z,83.10
2019-03-03T07:15:51.684Z,82.90
2019-03-03T07:18:19.351Z,81.30
2019-03-03T07:20:46.914Z,78.90
2019-03-03T07:23:14.511Z,77.70
2019-03-03T07:25:42.274Z,77.80
2019-03-03T07:28:09.872Z,77.80
2019-03-03T07:30:56.876Z,75.10
2019-03-03T07:33:39.803Z,74.30
2019-03-03T07:36:19.709Z,71.80
2019-03-03T07:39:00.250Z,69.90
2019-03-03T07:41:40.234Z,67.90
2019-03-03T07:44:20.235Z,69.20
2019-03-03T07:47:00.575Z,65.90
2019-03-03T07:49:40.653Z,66.40
2019-03-03T07:52:20.914Z,65.70
2019-03-03T07:55:01.044Z,61.60
2019-03-03T07:57:41.241Z,61.10
2019-03-03T08:00:21.352Z,61.60
2019-03-03T08:03:01.543Z,59.60
2019-03-03T08:05:41.767Z,57.70
2019-03-03T08:08:21.793Z,55.30
2019-03-03T08:11:01.982Z,54.20
2019-03-03T08:13:42.157Z,53.00
2019-03-03T08:16:22.546Z,54.20
2019-03-03T08:19:03.462Z,54.60
2019-03-03T08:21:44.100Z,53.40
2019-03-03T08:24:24.150Z,52.40
2019-03-03T08:27:04.377Z,53.70
2019-03-03T08:29:44.260Z,52.60
2019-03-03T08:32:24.470Z,53.90
2019-03-03T08:35:04.493Z,51.50
2019-03-03T08:37:44.790Z,51.90
2019-03-03T08:40:24.799Z,50.50
2019-03-03T08:49:09.577Z,46.80
2019-03-03T08:51:54.709Z,47.20
2019-03-03T08:54:54.145Z,47.80
2019-03-03T08:57:53.702Z,47.20
2019-03-03T09:00:52.698Z,47.20
2019-03-03T09:03:41.764Z,48.40
2019-03-03T09:06:44.015Z,47.20
2019-03-03T09:09:46.862Z,46.40
2019-03-03T09:12:43.009Z,44.90
2019-03-03T09:15:32.930Z,44.60
2019-03-03T09:18:30.587Z,44.20
2019-03-03T09:21:30.335Z,43.60
2019-03-03T09:24:29.568Z,43.90
2019-03-03T09:27:34.469Z,42.10
2019-03-03T09:30:33.889Z,41.60
2019-03-03T09:33:33.289Z,42.60
2019-03-03T09:36:35.312Z,42.90
2019-03-03T09:39:34.783Z,42.70
2019-03-03T09:42:22.347Z,43.30
2019-03-03T09:45:15.184Z,43.70
2019-03-03T09:48:01.937Z,41.70
2019-03-03T09:51:07.556Z,43.50
2019-03-03T09:54:06.725Z,42.80
2019-03-03T09:57:06.014Z,44.00
2019-03-03T09:59:53.614Z,42.70
2019-03-03T10:02:38.955Z,42.30
2019-03-03T10:05:32.133Z,40.30
2019-03-03T10:08:34.000Z,42.50
2019-03-03T10:11:23.688Z,42.80
2019-03-03T10:14:22.651Z,43.60
2019-03-03T10:17:21.860Z,43.50
2019-03-03T10:20:21.044Z,42.60
2019-03-03T10:23:14.760Z,40.90
2019-03-03T10:26:14.656Z,40.60
2019-03-03T10:29:13.988Z,38.90
2019-03-03T10:32:13.173Z,39.40
2019-03-03T10:38:07.112Z,36.90
2019-03-03T10:41:06.715Z,37.80
2019-03-03T10:43:57.174Z,38.00
2019-03-03T10:46:54.039Z,37.60
2019-03-03T10:49:44.856Z,35.50
2019-03-03T10:52:44.654Z,35.20
2019-03-03T10:55:39.100Z,34.60
2019-03-03T10:58:38.150Z,33.10
2019-03-03T11:01:25.768Z,32.60
2019-03-03T11:04:15.730Z,31.50
2019-03-03T11:07:20.654Z,29.40
2019-03-03T11:10:20.290Z,29.60
2019-03-03T11:13:19.472Z,29.20
2019-03-03T11:16:14.929Z,29.10
2019-03-03T11:19:06.992Z,29.00
2019-03-03T11:21:56.940Z,28.10
2019-03-03T11:24:56.511Z,27.80
2019-03-03T11:28:01.766Z,27.60
2019-03-03T11:31:02.993Z,27.00
2019-03-03T11:34:02.421Z,26.70
2019-03-03T11:37:01.793Z,27.30
2019-03-03T11:39:48.349Z,27.10
2019-03-03T11:42:48.173Z,26.70
2019-03-03T11:45:47.252Z,27.80
2019-03-03T11:48:49.505Z,28.40
2019-03-03T11:51:42.464Z,27.40
2019-03-03T11:54:48.929Z,28.00
2019-03-03T11:57:55.395Z,29.20
2019-03-03T12:00:50.552Z,28.10
2019-03-03T12:03:50.163Z,25.50
2019-03-03T12:06:36.275Z,26.30
2019-03-03T12:09:29.252Z,26.80
2019-03-03T12:12:32.326Z,26.80
2019-03-03T12:15:37.752Z,26.20
2019-03-03T12:18:27.971Z,24.50
2019-03-03T12:21:15.128Z,24.30
2019-03-03T12:24:07.317Z,24.70
2019-03-03T12:26:54.063Z,24.20
2019-03-03T12:29:59.247Z,24.40
2019-03-03T12:32:58.877Z,23.90
2019-03-03T12:35:57.923Z,24.30
2019-03-03T12:38:57.086Z,24.50
2019-03-03T12:44:26.904Z,25.20
2019-03-03T12:47:32.185Z,25.10
2019-03-03T12:50:31.608Z,25.90
2019-03-03T12:53:36.747Z,26.00
2019-03-03T12:56:33.040Z,25.40
2019-03-03T12:59:32.608Z,26.00
2019-03-03T13:02:37.742Z,26.40
2019-03-03T13:05:36.971Z,27.10
2019-03-03T13:08:36.384Z,26.80
2019-03-03T13:11:35.680Z,27.30
2019-03-03T13:14:37.621Z,27.90
2019-03-03T13:17:37.571Z,28.00
2019-03-03T13:20:37.564Z,27.50
2019-03-03T13:23:39.564Z,26.50
2019-03-03T13:26:39.136Z,26.80
2019-03-03T13:29:38.226Z,26.20
2019-03-03T13:32:24.056Z,25.50
2019-03-03T13:35:23.421Z,25.00
2019-03-03T13:38:11.908Z,25.30
2019-03-03T13:41:10.949Z,25.40
2019-03-03T13:43:50.692Z,24.90
2019-03-03T13:46:30.837Z,25.00
2019-03-03T13:49:10.974Z,24.40
2019-03-03T13:51:51.089Z,24.20
2019-03-03T13:54:31.001Z,24.30
2019-03-03T13:57:11.205Z,24.90
2019-03-03T13:59:51.101Z,25.10
2019-03-03T14:02:31.237Z,26.00
2019-03-03T14:05:11.167Z,26.50
2019-03-03T14:07:51.216Z,26.30
2019-03-03T14:10:31.262Z,25.70
2019-03-03T14:13:11.372Z,25.30
2019-03-03T14:15:51.481Z,25.00
2019-03-03T14:18:31.536Z,24.70
2019-03-03T14:21:14.220Z,24.10
2019-03-03T14:23:52.395Z,23.60
2019-03-03T14:26:39.392Z,22.70
2019-03-03T14:29:26.533Z,23.70
2019-03-03T14:32:13.557Z,23.40
2019-03-03T14:35:00.921Z,22.70
2019-03-03T14:37:41.028Z,23.60
2019-03-03T14:43:10.543Z,23.70
2019-03-03T14:45:50.769Z,23.60
2019-03-03T14:48:30.797Z,23.40
2019-03-03T14:51:10.913Z,23.70
2019-03-03T14:53:50.928Z,23.60
2019-03-03T14:56:30.876Z,24.00
2019-03-03T14:59:11.327Z,24.30
2019-03-03T15:01:51.628Z,24.60
2019-03-03T15:04:19.423Z,24.60
2019-03-03T15:07:06.400Z,24.70
2019-03-03T15:09:46.144Z,24.80
2019-03-03T15:12:26.374Z,25.30
2019-03-03T15:15:06.632Z,26.00
2019-03-03T15:17:46.817Z,26.30
2019-03-03T15:20:26.880Z,26.90
2019-03-03T15:23:07.054Z,27.40
2019-03-03T15:25:47.367Z,28.10
2019-03-03T15:28:27.466Z,28.70
2019-03-03T15:31:07.973Z,29.00
2019-03-03T15:33:47.761Z,29.70
2019-03-03T15:36:30.227Z,30.40
2019-03-03T15:39:09.876Z,30.80
2019-03-03T15:41:50.078Z,30.80
2019-03-03T15:44:30.066Z,31.50
2019-03-03T15:47:10.013Z,31.10
2019-03-03T15:49:50.240Z,30.90
2019-03-03T15:52:30.577Z,31.40
2019-03-03T15:55:10.691Z,32.40
2019-03-03T15:57:50.825Z,33.40
2019-03-03T16:00:31.052Z,32.60
2019-03-03T16:03:10.847Z,32.00
2019-03-03T16:05:51.460Z,30.60
2019-03-03T16:08:32.844Z,30.10
2019-03-03T16:11:11.499Z,30.00
2019-03-03T16:13:58.517Z,29.10
2019-03-03T16:16:38.932Z,28.20
2019-03-03T16:19:19.117Z,28.30
2019-03-03T16:21:59.281Z,28.10
2019-03-03T16:24:39.347Z,28.40
2019-03-03T16:27:19.392Z,29.10
2019-03-03T16:30:01.525Z,29.60
2019-03-03T16:32:41.981Z,30.00
2019-03-03T16:35:21.742Z,30.90
2019-03-03T16:37:49.563Z,31.50
2019-03-03T16:40:39.825Z,32.40
2019-03-03T16:43:25.626Z,32.80
2019-03-03T16:46:06.057Z,33.60
2019-03-03T16:48:46.176Z,34.40
2019-03-03T16:54:39.685Z,35.50
2019-03-03T16:57:19.457Z,36.80
2019-03-03T17:00:00.436Z,37.50
2019-03-03T17:02:40.029Z,40.50
2019-03-03T17:05:20.236Z,42.20
2019-03-03T17:08:00.494Z,43.60
2019-03-03T17:10:40.555Z,44.50
2019-03-03T17:13:20.723Z,45.20
2019-03-03T17:16:00.664Z,46.50
2019-03-03T17:18:41.005Z,46.80
2019-03-03T17:21:21.066Z,47.50
2019-03-03T17:24:01.281Z,47.70
2019-03-03T17:26:41.520Z,48.50
2019-03-03T17:29:21.544Z,49.10
2019-03-03T17:32:01.770Z,49.80
2019-03-03T17:34:42.093Z,50.60
2019-03-03T17:37:22.555Z,51.00
2019-03-03T17:40:02.700Z,51.30
2019-03-03T17:42:42.777Z,51.60
2019-03-03T17:45:22.660Z,52.10
2019-03-03T17:48:02.757Z,52.30
2019-03-03T17:50:42.708Z,52.50
2019-03-03T17:53:22.864Z,52.50
2019-03-03T17:56:02.736Z,52.80
2019-03-03T17:58:30.372Z,53.00
2019-03-03T18:01:17.401Z,52.80
2019-03-03T18:03:57.864Z,52.60
2019-03-03T18:06:39.032Z,53.10
2019-03-03T18:09:20.504Z,53.30
2019-03-03T18:11:59.744Z,53.80
2019-03-03T18:14:40.139Z,53.90
2019-03-03T18:17:20.534Z,53.90
2019-03-03T18:20:00.520Z,54.40
2019-03-03T18:22:40.728Z,54.40
2019-03-03T18:25:21.053Z,55.50
2019-03-03T18:28:01.080Z,55.00
2019-03-03T18:30:41.365Z,55.20
2019-03-03T18:33:21.403Z,55.00
2019-03-03T18:36:01.407Z,55.30
2019-03-03T18:38:41.413Z,55.60
2019-03-03T18:41:21.746Z,55.90
2019-03-03T18:44:01.750Z,56.30
2019-03-03T18:46:42.076Z,56.80
2019-03-03T18:49:22.100Z,56.50
2019-03-03T18:52:02.284Z,56.50
2019-03-03T18:54:42.400Z,56.50
2019-03-03T18:57:22.345Z,57.10
2019-03-03T19:00:02.575Z,57.80
2019-03-03T19:02:42.653Z,57.80
2019-03-03T19:05:22.705Z,58.20
2019-03-03T19:08:02.863Z,59.20
2019-03-03T19:10:43.223Z,58.70
2019-03-03T19:13:23.624Z,58.30
2019-03-03T19:15:51.401Z,58.30
2019-03-03T19:18:38.871Z,58.60
2019-03-03T19:21:25.905Z,58.90
2019-03-03T19:24:06.445Z,59.00
2019-03-03T19:26:46.494Z,59.20
2019-03-03T19:29:26.579Z,59.30
2019-03-03T19:32:06.764Z,59.40
2019-03-03T19:34:46.587Z,59.50
2019-03-03T19:37:26.928Z,59.50
2019-03-03T19:40:07.070Z,59.60
2019-03-03T19:42:47.232Z,60.00
2019-03-03T19:45:27.242Z,60.30
2019-03-03T19:48:07.285Z,60.70
2019-03-03T19:50:47.506Z,60.80
2019-03-03T19:53:27.689Z,60.60
2019-03-03T19:56:08.097Z,60.50
2019-03-03T19:58:47.672Z,60.80
2019-03-03T20:01:27.888Z,61.00
2019-03-03T20:04:07.929Z,61.00
2019-03-03T20:06:50.058Z,60.90
2019-03-03T20:09:30.170Z,61.60
2019-03-03T20:11:57.762Z,60.30
2019-03-03T20:14:25.510Z,61.20
2019-03-03T20:16:53.103Z,61.00
2019-03-03T20:19:21.133Z,61.50
2019-03-03T20:21:48.654Z,62.40
2019-03-03T20:24:16.280Z,63.10
2019-03-03T20:26:46.076Z,63.20
2019-03-03T20:29:13.859Z,63.60
2019-03-03T20:31:41.817Z,63.50
2019-03-03T20:34:12.132Z,63.80
2019-03-03T20:36:39.909Z,63.80
2019-03-03T20:39:07.937Z,64.20
2019-03-03T20:41:35.588Z,63.90
2019-03-03T20:44:03.394Z,64.90
2019-03-03T20:46:33.389Z,64.40
2019-03-03T20:49:05.433Z,64.60
2019-03-03T20:51:30.772Z,64.50
2019-03-03T20:53:58.467Z,64.50
2019-03-03T20:56:26.369Z,63.60
2019-03-03T20:58:54.130Z,63.90
2019-03-03T21:01:21.808Z,63.70
2019-03-03T21:03:49.438Z,63.70
2019-03-03T21:06:16.997Z,63.90
2019-03-03T21:08:44.591Z,64.20
2019-03-03T21:11:12.208Z,64.60
2019-03-03T21:13:39.899Z,64.70
2019-03-03T21:16:07.534Z,64.10
2019-03-03T21:18:35.068Z,64.20
2019-03-03T21:21:02.669Z,64.40
2019-03-03T21:23:31.196Z,64.70
2019-03-03T21:25:58.786Z,64.00
2019-03-03T21:28:26.397Z,63.90
2019-03-03T21:30:54.007Z,64.00
2019-03-03T21:33:21.697Z,64.20
2019-03-03T21:35:49.284Z,63.50
2019-03-03T21:38:16.906Z,62.40
2019-03-03T21:40:44.496Z,62.30
2019-03-03T21:43:12.069Z,62.20
2019-03-03T21:45:39.717Z,62.40
2019-03-03T21:48:07.384Z,61.60
2019-03-03T21:50:34.981Z,59.90
2019-03-03T21:53:02.579Z,60.00
2019-03-03T21:55:30.323Z,61.00
2019-03-03T21:57:57.935Z,61.90
2019-03-03T22:00:27.452Z,61.60
2019-03-03T22:02:55.251Z,62.00
2019-03-03T22:05:22.927Z,61.60
2019-03-03T22:07:50.537Z,61.80
2019-03-03T22:10:18.249Z,61.30
2019-03-03T22:12:45.916Z,61.60
2019-03-03T22:15:13.747Z,62.30
2019-03-03T22:17:41.419Z,62.70
2019-03-03T22:20:09.322Z,63.00
2019-03-03T22:22:37.080Z,62.60
2019-03-03T22:25:05.224Z,62.80
2019-03-03T22:27:32.814Z,62.20
2019-03-03T22:30:00.550Z,62.30
2019-03-03T22:32:28.289Z,62.40
2019-03-03T22:34:55.912Z,62.20
2019-03-03T22:37:23.629Z,61.90
2019-03-03T22:39:51.383Z,61.80
2019-03-03T22:42:18.964Z,60.30
2019-03-03T22:44:46.859Z,60.30
2019-03-03T22:47:27.377Z,60.30
2019-03-03T22:50:07.858Z,60.60
2019-03-03T22:52:47.467Z,60.60
2019-03-03T22:55:27.690Z,60.50
2019-03-03T22:58:07.746Z,61.10
2019-03-03T23:00:52.984Z,61.30
2019-03-03T23:03:33.076Z,61.50
2019-03-03T23:06:13.220Z,61.10
2019-03-03T23:08:53.241Z,60.30
2019-03-03T23:11:33.509Z,59.40
2019-03-03T23:14:13.913Z,59.20
2019-03-03T23:16:54.293Z,58.90
2019-03-03T23:19:34.481Z,58.60
2019-03-03T23:22:14.494Z,58.80
2019-03-03T23:24:54.567Z,59.30
2019-03-03T23:27:34.597Z,59.90
2019-03-03T23:30:14.850Z,59.50
2019-03-03T23:32:55.232Z,59.80
2019-03-03T23:35:35.285Z,60.20
2019-03-03T23:38:15.437Z,60.50
2019-03-03T23:40:55.661Z,59.60
2019-03-03T23:43:35.867Z,59.80
2019-03-03T23:46:16.158Z,59.60
2019-03-03T23:48:56.287Z,59.40
2019-03-03T23:51:36.450Z,59.20
2019-03-03T23:54:16.479Z,58.30
2019-03-03T23:56:56.701Z,58.70
2019-03-03T23:59:37.093Z,58.10
